Time;durP1;ratioP1;P1;durP2;ratioP2;P2;SDS_P1;SDS_P2;PMS_P1;PMS_P2;Temp;Humidity;BMP_temperature;BMP_pressure;BME280_temperature;BME280_humidity;BME280_pressure;Samples;Min_cycle;Max_cycle;Signal;HPM_P1;HPM_P2
2023/06/06 00:01:17;;;;;;;10.45;4.63;;;13.00;99.90;;;;;;5111982;28;20046;-86
2023/06/06 00:03:48;;;;;;;12.13;8.13;;;12.90;99.90;;;;;;5111786;28;20075;-87
2023/06/06 00:06:16;;;;;;;13.80;4.97;;;13.00;99.90;;;;;;5094914;28;20035;-87
2023/06/06 00:08:42;;;;;;;10.55;5.03;;;13.00;99.90;;;;;;5113167;28;20039;-87
2023/06/06 00:11:09;;;;;;;12.07;5.57;;;12.90;99.90;;;;;;5111365;28;20429;-87
2023/06/06 00:13:42;;;;;;;9.98;4.18;;;12.80;99.90;;;;;;5130053;27;20440;-85
2023/06/06 00:16:09;;;;;;;11.30;4.60;;;12.80;99.90;;;;;;5111724;28;20454;-85
2023/06/06 00:18:35;;;;;;;12.10;5.38;;;12.80;99.90;;;;;;5128589;27;20039;-85
2023/06/06 00:21:00;;;;;;;13.80;6.00;;;12.70;99.90;;;;;;5128419;28;20039;-85
2023/06/06 00:23:26;;;;;;;12.50;5.18;;;12.70;99.90;;;;;;5111897;28;20104;-85
2023/06/06 00:25:55;;;;;;;12.45;8.68;;;12.70;99.90;;;;;;5128659;27;20077;-85
2023/06/06 00:28:20;;;;;;;10.63;4.63;;;12.80;99.90;;;;;;5111894;28;20558;-85
2023/06/06 00:30:46;;;;;;;10.75;4.85;;;12.70;99.90;;;;;;5128145;27;20040;-85
2023/06/06 00:33:11;;;;;;;11.90;4.85;;;12.60;99.90;;;;;;5128461;28;20039;-85
2023/06/06 00:35:37;;;;;;;10.13;4.30;;;12.60;99.90;;;;;;5111371;28;20049;-85
2023/06/06 00:38:03;;;;;;;12.65;7.60;;;12.50;99.90;;;;;;5128913;28;20137;-85
2023/06/06 00:40:28;;;;;;;10.90;4.57;;;12.60;99.90;;;;;;5110974;28;20528;-85
2023/06/06 00:42:54;;;;;;;11.75;4.20;;;12.60;99.90;;;;;;5128564;28;20047;-85
2023/06/06 00:45:20;;;;;;;11.60;5.20;;;12.50;99.90;;;;;;5111163;28;20408;-85
2023/06/06 00:47:46;;;;;;;12.57;7.97;;;12.50;99.90;;;;;;5128076;28;20050;-85
2023/06/06 00:50:12;;;;;;;12.07;4.78;;;12.50;99.90;;;;;;5110813;28;20435;-85
2023/06/06 00:52:41;;;;;;;10.85;4.68;;;12.50;99.90;;;;;;5111024;28;20043;-86
2023/06/06 00:55:09;;;;;;;11.02;4.60;;;12.50;99.90;;;;;;5128286;28;20088;-85
2023/06/06 00:57:36;;;;;;;10.75;4.22;;;12.50;99.90;;;;;;5110973;28;20519;-85
2023/06/06 01:00:05;;;;;;;11.52;4.65;;;12.40;99.90;;;;;;5110961;27;20035;-85
2023/06/06 01:02:37;;;;;;;12.80;8.35;;;12.40;99.90;;;;;;5111168;28;20054;-85
2023/06/06 01:05:03;;;;;;;11.40;4.45;;;12.50;99.90;;;;;;5110868;28;20047;-85
2023/06/06 01:07:29;;;;;;;11.18;4.40;;;12.50;99.90;;;;;;5128006;28;20043;-85
2023/06/06 01:09:55;;;;;;;10.68;4.43;;;12.40;99.90;;;;;;5127447;27;20049;-85
2023/06/06 01:12:32;;;;;;;10.77;4.68;;;12.40;99.90;;;;;;5110511;28;20042;-85
2023/06/06 01:15:10;;;;;;;12.30;7.80;;;12.40;99.90;;;;;;5127861;28;20142;-85
2023/06/06 01:17:38;;;;;;;12.82;4.85;;;12.50;99.90;;;;;;5127978;28;20108;-86
2023/06/06 01:20:08;;;;;;;12.07;4.68;;;12.40;99.90;;;;;;5127375;27;20047;-85
2023/06/06 01:22:35;;;;;;;12.48;5.10;;;12.30;99.90;;;;;;5127676;28;20039;-85
2023/06/06 01:25:02;;;;;;;10.98;4.43;;;12.20;99.90;;;;;;5097261;28;20057;-85
2023/06/06 01:27:33;;;;;;;11.75;4.88;;;12.20;99.90;;;;;;5113920;28;20078;-85
2023/06/06 01:30:03;;;;;;;10.23;4.35;;;12.20;99.90;;;;;;5113468;28;20039;-85
2023/06/06 01:32:34;;;;;;;9.88;4.45;;;12.20;99.90;;;;;;5096523;28;20040;-85
2023/06/06 01:35:09;;;;;;;10.45;4.43;;;12.10;99.90;;;;;;5096649;28;20511;-85
2023/06/06 01:37:45;;;;;;;13.43;8.40;;;12.00;99.90;;;;;;5113501;28;20413;-85
2023/06/06 01:40:13;;;;;;;10.25;4.03;;;12.10;99.90;;;;;;5113282;28;20039;-85
2023/06/06 01:42:45;;;;;;;11.43;4.60;;;12.00;99.90;;;;;;5114810;28;20100;-85
2023/06/06 01:45:14;;;;;;;8.27;3.35;;;11.90;99.90;;;;;;5096896;28;20039;-85
2023/06/06 01:47:41;;;;;;;13.15;5.20;;;11.80;99.90;;;;;;5113636;28;20447;-85
2023/06/06 01:50:07;;;;;;;11.68;4.40;;;11.80;99.90;;;;;;5113206;28;20056;-85
2023/06/06 01:52:35;;;;;;;10.38;4.43;;;11.80;99.90;;;;;;5096237;28;20051;-85
2023/06/06 01:55:01;;;;;;;11.60;3.88;;;11.70;99.90;;;;;;5096044;28;20047;-85
2023/06/06 01:57:27;;;;;;;11.10;7.60;;;11.70;99.90;;;;;;5096348;28;20047;-85
2023/06/06 01:59:54;;;;;;;10.35;4.32;;;11.70;99.90;;;;;;5095765;28;20040;-85
2023/06/06 02:02:19;;;;;;;13.10;4.40;;;11.70;99.90;;;;;;5113137;28;20412;-85
2023/06/06 02:04:45;;;;;;;11.15;4.68;;;11.60;99.90;;;;;;5112911;28;20134;-85
2023/06/06 02:07:12;;;;;;;11.80;5.00;;;11.60;99.90;;;;;;5113332;28;20079;-85
2023/06/06 02:09:38;;;;;;;9.35;4.45;;;11.60;99.90;;;;;;5095657;28;20516;-85
2023/06/06 02:12:05;;;;;;;11.38;5.05;;;11.60;99.90;;;;;;5112823;28;20122;-85
2023/06/06 02:14:30;;;;;;;14.90;5.03;;;11.60;99.90;;;;;;5096195;28;20046;-85
2023/06/06 02:16:57;;;;;;;10.07;4.57;;;11.60;99.90;;;;;;5112808;28;20043;-85
2023/06/06 02:19:23;;;;;;;10.48;4.88;;;11.60;99.90;;;;;;5112703;28;20090;-85
2023/06/06 02:21:50;;;;;;;11.80;4.70;;;11.60;99.90;;;;;;5095742;28;20545;-85
2023/06/06 02:24:15;;;;;;;10.05;4.47;;;11.60;99.90;;;;;;5112760;28;20040;-85
2023/06/06 02:26:42;;;;;;;11.95;8.00;;;11.60;99.90;;;;;;5112629;28;20103;-85
2023/06/06 02:29:08;;;;;;;10.80;5.32;;;11.60;99.90;;;;;;5095659;28;20045;-86
2023/06/06 02:31:36;;;;;;;11.27;4.60;;;11.60;99.90;;;;;;5095204;28;20122;-86
2023/06/06 02:34:02;;;;;;;12.43;5.25;;;11.60;99.90;;;;;;5112577;28;20552;-86
2023/06/06 02:36:29;;;;;;;12.07;5.72;;;11.60;99.90;;;;;;5111755;28;20554;-85
2023/06/06 02:38:56;;;;;;;13.65;5.90;;;11.60;99.90;;;;;;5112410;28;20451;-86
2023/06/06 02:41:21;;;;;;;12.02;5.78;;;11.60;99.90;;;;;;5112053;28;20115;-86
2023/06/06 02:43:47;;;;;;;15.50;6.45;;;11.50;99.90;;;;;;5095274;28;20118;-86
2023/06/06 02:46:13;;;;;;;14.38;6.75;;;11.60;99.90;;;;;;5112467;28;20049;-86
2023/06/06 02:48:39;;;;;;;13.40;6.88;;;11.60;99.90;;;;;;5095165;28;20118;-86
2023/06/06 02:51:06;;;;;;;13.25;6.35;;;11.50;99.90;;;;;;5111853;28;20089;-86
2023/06/06 02:53:32;;;;;;;13.15;7.82;;;11.60;99.90;;;;;;5094990;28;20450;-86
2023/06/06 02:55:58;;;;;;;16.52;6.95;;;11.60;99.90;;;;;;5111985;28;20485;-86
2023/06/06 02:58:28;;;;;;;13.93;6.40;;;11.60;99.90;;;;;;5112043;28;20032;-86
2023/06/06 03:00:55;;;;;;;14.23;6.88;;;11.60;99.90;;;;;;5111501;28;20032;-86
2023/06/06 03:03:21;;;;;;;14.93;6.82;;;11.60;99.90;;;;;;5094997;28;20051;-86
2023/06/06 03:05:51;;;;;;;15.20;7.10;;;11.50;99.90;;;;;;5111672;28;20097;-86
2023/06/06 03:08:17;;;;;;;15.23;6.82;;;11.60;99.90;;;;;;5111897;28;20035;-86
2023/06/06 03:10:47;;;;;;;15.68;6.53;;;11.50;99.90;;;;;;5111685;28;20544;-86
2023/06/06 03:13:13;;;;;;;12.07;6.20;;;11.50;99.90;;;;;;5111687;28;20036;-86
2023/06/06 03:15:40;;;;;;;14.55;6.93;;;11.50;99.90;;;;;;5094710;28;20043;-86
2023/06/06 03:18:09;;;;;;;13.73;7.28;;;11.50;99.90;;;;;;5094683;28;20042;-86
2023/06/06 03:20:41;;;;;;;19.20;7.15;;;11.50;99.90;;;;;;5111228;28;20050;-86
2023/06/06 03:23:10;;;;;;;14.70;7.35;;;11.50;99.90;;;;;;5111670;28;20043;-86
2023/06/06 03:25:36;;;;;;;16.80;7.10;;;11.50;99.90;;;;;;5094530;28;20114;-86
2023/06/06 03:28:02;;;;;;;16.23;7.75;;;11.50;99.90;;;;;;5094444;28;20043;-86
2023/06/06 03:30:28;;;;;;;20.65;7.32;;;11.50;99.90;;;;;;5111127;28;20049;-86
2023/06/06 03:32:55;;;;;;;15.55;6.43;;;11.50;99.90;;;;;;5094283;28;20040;-86
2023/06/06 03:35:21;;;;;;;16.10;6.68;;;11.50;99.90;;;;;;5111705;28;20063;-86
2023/06/06 03:37:47;;;;;;;18.05;11.48;;;11.50;99.90;;;;;;5094607;28;20480;-86
2023/06/06 03:40:13;;;;;;;13.68;6.60;;;11.60;99.90;;;;;;5094068;28;20043;-86
2023/06/06 03:42:38;;;;;;;15.18;7.05;;;11.70;99.90;;;;;;5094163;28;20078;-86
2023/06/06 03:45:05;;;;;;;13.13;5.90;;;11.60;99.90;;;;;;5111503;28;20039;-85
2023/06/06 03:47:31;;;;;;;12.70;6.47;;;11.60;99.90;;;;;;5111283;28;20036;-86
2023/06/06 03:49:56;;;;;;;13.43;6.15;;;11.60;99.90;;;;;;5110797;28;20515;-86
2023/06/06 03:52:22;;;;;;;12.07;6.18;;;11.60;99.90;;;;;;5094187;28;20043;-86
2023/06/06 03:54:48;;;;;;;12.30;6.10;;;11.70;99.90;;;;;;5111262;28;20108;-86
2023/06/06 03:57:14;;;;;;;13.35;6.00;;;11.70;99.90;;;;;;5093884;28;20575;-86
2023/06/06 03:59:40;;;;;;;13.27;6.65;;;11.70;99.90;;;;;;5110511;28;20042;-86
2023/06/06 04:02:06;;;;;;;15.00;6.25;;;11.70;99.90;;;;;;5094111;28;20412;-86
2023/06/06 04:04:32;;;;;;;16.75;11.32;;;11.70;99.90;;;;;;5110946;28;20039;-86
2023/06/06 04:06:58;;;;;;;14.05;5.93;;;11.80;99.90;;;;;;5111249;28;20140;-86
2023/06/06 04:09:24;;;;;;;18.00;6.43;;;11.80;99.90;;;;;;5110867;28;20044;-86
2023/06/06 04:11:50;;;;;;;16.90;5.95;;;11.80;99.90;;;;;;5093482;28;20096;-86
2023/06/06 04:14:15;;;;;;;13.77;6.18;;;11.80;99.90;;;;;;5110959;28;20068;-86
2023/06/06 04:16:41;;;;;;;16.70;11.23;;;11.80;99.90;;;;;;5094077;28;20118;-86
2023/06/06 04:19:07;;;;;;;15.93;11.05;;;11.90;99.90;;;;;;5110787;28;20503;-86
2023/06/06 04:21:33;;;;;;;13.02;5.70;;;12.10;99.90;;;;;;5110513;28;20035;-85
2023/06/06 04:23:59;;;;;;;13.98;6.03;;;12.10;99.90;;;;;;5112044;28;20040;-86
2023/06/06 04:26:31;;;;;;;13.18;6.10;;;12.10;99.90;;;;;;5110687;28;20047;-86
2023/06/06 04:28:59;;;;;;;13.10;5.55;;;12.00;99.90;;;;;;5093758;28;20036;-86
2023/06/06 04:31:29;;;;;;;14.35;5.35;;;12.10;99.90;;;;;;5110303;28;20500;-86
2023/06/06 04:33:55;;;;;;;12.40;4.90;;;12.10;99.90;;;;;;5111007;28;20122;-86
2023/06/06 04:36:22;;;;;;;20.08;5.68;;;12.10;99.90;;;;;;5093746;28;20040;-86
2023/06/06 04:38:51;;;;;;;14.27;5.82;;;12.10;99.90;;;;;;5110579;28;20039;-86
2023/06/06 04:41:17;;;;;;;12.77;5.32;;;12.20;99.90;;;;;;5110313;28;20118;-86
2023/06/06 04:43:49;;;;;;;13.82;5.93;;;12.20;99.90;;;;;;5110510;28;20122;-86
2023/06/06 04:46:21;;;;;;;10.90;5.18;;;12.30;99.90;;;;;;5093964;28;20035;-85
2023/06/06 04:48:53;;;;;;;13.38;6.25;;;12.30;99.90;;;;;;5110568;28;20044;-86
2023/06/06 04:51:30;;;;;;;13.13;5.80;;;12.30;99.90;;;;;;5110192;28;20176;-86
2023/06/06 04:54:01;;;;;;;13.15;5.55;;;12.40;99.90;;;;;;5093754;28;20100;-85
2023/06/06 04:56:30;;;;;;;16.95;5.20;;;12.40;99.90;;;;;;5110466;28;20036;-85
2023/06/06 04:58:57;;;;;;;12.90;5.38;;;12.50;99.90;;;;;;5111658;28;20123;-86
2023/06/06 05:01:23;;;;;;;16.88;9.52;;;12.50;99.90;;;;;;5114029;28;20036;-85
2023/06/06 05:03:50;;;;;;;15.35;9.68;;;12.60;99.90;;;;;;5097258;28;20066;-85
2023/06/06 05:06:16;;;;;;;15.13;5.32;;;12.80;99.90;;;;;;5094662;28;20040;-86
2023/06/06 05:08:44;;;;;;;13.38;5.15;;;12.80;99.90;;;;;;5096499;28;20043;-86
2023/06/06 05:11:11;;;;;;;12.23;4.53;;;12.70;99.90;;;;;;5112859;28;20386;-86
2023/06/06 05:13:36;;;;;;;15.35;6.15;;;12.80;99.90;;;;;;5096157;28;20089;-85
2023/06/06 05:16:02;;;;;;;14.70;5.18;;;12.80;99.90;;;;;;5113158;28;20039;-86
2023/06/06 05:18:30;;;;;;;11.05;5.25;;;12.80;99.90;;;;;;5113415;28;20046;-86
2023/06/06 05:21:00;;;;;;;12.80;5.10;;;12.90;99.90;;;;;;5113024;28;20039;-86
2023/06/06 05:23:27;;;;;;;10.73;5.10;;;13.00;99.90;;;;;;5113191;28;20050;-85
2023/06/06 05:25:56;;;;;;;13.25;5.25;;;13.00;99.90;;;;;;5096165;28;20051;-86
2023/06/06 05:28:22;;;;;;;14.52;9.13;;;13.00;99.90;;;;;;5095822;28;20562;-86
2023/06/06 05:30:47;;;;;;;12.70;5.20;;;13.10;99.90;;;;;;5112516;28;20043;-86
2023/06/06 05:33:13;;;;;;;11.52;4.68;;;13.20;99.90;;;;;;5085445;28;20033;-86
2023/06/06 05:35:39;;;;;;;13.60;6.82;;;13.20;99.90;;;;;;5075881;28;20028;-85
2023/06/06 05:38:05;;;;;;;14.75;8.52;;;13.30;99.90;;;;;;5107633;28;20496;-86
2023/06/06 05:40:31;;;;;;;14.75;8.48;;;13.40;99.90;;;;;;5107794;28;20043;-86
2023/06/06 05:42:56;;;;;;;14.73;5.55;;;13.50;99.90;;;;;;5096197;28;20088;-86
2023/06/06 05:45:22;;;;;;;15.25;8.95;;;13.50;99.90;;;;;;5096023;28;20044;-86
2023/06/06 05:47:48;;;;;;;13.80;7.60;;;13.60;99.90;;;;;;5096247;28;20047;-85
2023/06/06 05:50:14;;;;;;;14.07;4.22;;;13.70;99.90;;;;;;5095968;28;20048;-86
2023/06/06 05:52:39;;;;;;;13.52;8.73;;;13.70;99.90;;;;;;5095994;28;20050;-86
2023/06/06 05:55:06;;;;;;;10.40;4.45;;;13.80;99.90;;;;;;5095729;28;20039;-86
2023/06/06 05:57:31;;;;;;;11.60;5.53;;;13.80;99.90;;;;;;5109172;28;20031;-86
2023/06/06 06:00:00;;;;;;;15.88;5.30;;;13.80;99.90;;;;;;5077596;28;20054;-86
2023/06/06 06:02:28;;;;;;;13.93;7.70;;;13.80;99.90;;;;;;5086362;28;20488;-87
2023/06/06 06:04:56;;;;;;;12.45;4.65;;;14.00;99.90;;;;;;5099663;28;20035;-86
2023/06/06 06:07:23;;;;;;;12.25;5.10;;;14.00;99.90;;;;;;5102667;28;20039;-86
2023/06/06 06:09:49;;;;;;;16.17;7.90;;;14.00;99.90;;;;;;5095195;28;20032;-86
2023/06/06 06:12:15;;;;;;;15.07;5.05;;;14.10;99.90;;;;;;5112368;28;20053;-86
2023/06/06 06:14:40;;;;;;;14.30;7.35;;;14.20;99.90;;;;;;5112086;28;20039;-86
2023/06/06 06:17:06;;;;;;;15.07;7.13;;;14.30;99.90;;;;;;5112275;28;20036;-86
2023/06/06 06:19:32;;;;;;;15.15;4.88;;;14.40;99.90;;;;;;5094664;28;20466;-86
2023/06/06 06:21:57;;;;;;;13.73;5.03;;;14.40;99.90;;;;;;5095422;28;20054;-86
2023/06/06 06:24:23;;;;;;;16.10;4.97;;;14.40;99.90;;;;;;5112340;28;20062;-86
2023/06/06 06:26:51;;;;;;;15.40;7.15;;;14.50;99.90;;;;;;5095422;28;20047;-86
2023/06/06 06:29:16;;;;;;;12.32;4.22;;;14.60;99.90;;;;;;5094900;28;20043;-86
2023/06/06 06:31:42;;;;;;;11.52;4.90;;;14.60;99.90;;;;;;5091225;28;20042;-86
2023/06/06 06:34:07;;;;;;;16.70;6.75;;;14.70;99.90;;;;;;5111985;28;20039;-86
2023/06/06 06:36:33;;;;;;;16.40;6.88;;;14.80;99.90;;;;;;5094920;28;20035;-86
2023/06/06 06:38:59;;;;;;;13.23;6.68;;;14.90;99.90;;;;;;5111658;28;20577;-86
2023/06/06 06:41:25;;;;;;;16.30;6.95;;;14.90;99.90;;;;;;5094621;28;20039;-86
2023/06/06 06:43:50;;;;;;;10.20;3.90;;;15.00;99.90;;;;;;5111720;28;20044;-86
2023/06/06 06:46:16;;;;;;;11.50;4.32;;;15.00;99.90;;;;;;5111797;28;20095;-86
2023/06/06 06:48:45;;;;;;;10.40;4.60;;;15.10;99.90;;;;;;5095132;28;20043;-86
2023/06/06 06:51:13;;;;;;;13.38;6.30;;;15.20;99.90;;;;;;5111700;28;20039;-86
2023/06/06 06:53:39;;;;;;;13.95;4.25;;;15.30;99.90;;;;;;5111862;28;20044;-86
2023/06/06 06:56:05;;;;;;;12.55;6.07;;;15.30;99.90;;;;;;5111481;28;20036;-86
2023/06/06 06:58:33;;;;;;;13.93;4.75;;;15.40;99.90;;;;;;5111054;28;20040;-87
2023/06/06 07:01:02;;;;;;;12.48;6.43;;;15.40;99.90;;;;;;5111485;28;20598;-86
2023/06/06 07:03:28;;;;;;;15.20;6.75;;;15.50;99.90;;;;;;5111670;28;20036;-87
2023/06/06 07:05:54;;;;;;;11.48;5.13;;;15.60;99.90;;;;;;5111462;28;20501;-86
2023/06/06 07:08:20;;;;;;;11.35;6.05;;;15.60;99.90;;;;;;5111303;28;20556;-87
2023/06/06 07:10:46;;;;;;;11.82;6.30;;;15.80;99.90;;;;;;5093934;28;20513;-86
2023/06/06 07:13:15;;;;;;;13.10;6.15;;;15.90;99.90;;;;;;5111124;28;20035;-86
2023/06/06 07:15:41;;;;;;;11.82;4.50;;;16.00;99.90;;;;;;5093362;28;20071;-86
2023/06/06 07:18:06;;;;;;;15.75;6.80;;;16.10;99.90;;;;;;5110804;28;20103;-86
2023/06/06 07:20:33;;;;;;;14.18;6.45;;;16.10;99.90;;;;;;5110655;28;20055;-87
2023/06/06 07:22:59;;;;;;;10.38;4.35;;;16.20;99.90;;;;;;5093637;28;20043;-86
2023/06/06 07:25:24;;;;;;;12.13;6.03;;;16.20;99.90;;;;;;5110842;28;20039;-86
2023/06/06 07:27:50;;;;;;;13.63;4.43;;;16.20;99.90;;;;;;5094059;28;20098;-86
2023/06/06 07:30:16;;;;;;;14.25;4.97;;;16.30;99.90;;;;;;5093873;28;20130;-86
2023/06/06 07:32:43;;;;;;;13.13;6.68;;;16.30;99.90;;;;;;5094170;28;20032;-86
2023/06/06 07:35:17;;;;;;;12.23;7.00;;;16.40;99.90;;;;;;5110832;28;20044;-86
2023/06/06 07:37:43;;;;;;;13.52;6.65;;;16.50;99.90;;;;;;5110687;28;20040;-86
2023/06/06 07:40:10;;;;;;;13.70;5.63;;;16.60;99.90;;;;;;5110079;28;20039;-86
2023/06/06 07:42:36;;;;;;;12.23;6.75;;;16.60;99.90;;;;;;5110853;28;20043;-86
2023/06/06 07:45:05;;;;;;;14.93;7.25;;;16.70;99.90;;;;;;5110612;28;20040;-86
2023/06/06 07:47:31;;;;;;;12.93;7.18;;;16.80;99.90;;;;;;5094072;28;20404;-86
2023/06/06 07:49:56;;;;;;;14.07;7.40;;;16.90;99.90;;;;;;5092043;28;20036;-86
2023/06/06 07:52:22;;;;;;;14.23;7.65;;;17.00;99.90;;;;;;5093806;28;20038;-86
2023/06/06 07:54:48;;;;;;;11.93;5.10;;;17.10;99.90;;;;;;5094301;28;20481;-86
2023/06/06 07:57:15;;;;;;;14.73;8.85;;;17.10;99.90;;;;;;5094183;28;20031;-87
2023/06/06 07:59:44;;;;;;;15.35;8.90;;;17.20;99.90;;;;;;5093678;28;20035;-86
2023/06/06 08:02:14;;;;;;;15.60;9.65;;;17.30;99.90;;;;;;5111212;28;20066;-86
2023/06/06 08:04:45;;;;;;;15.50;9.68;;;17.30;99.90;;;;;;5111224;28;20165;-87
2023/06/06 08:07:12;;;;;;;13.50;8.43;;;17.40;99.90;;;;;;5110935;28;20122;-87
2023/06/06 08:09:37;;;;;;;17.77;8.93;;;17.40;99.90;;;;;;5110782;28;20442;-86
2023/06/06 08:12:05;;;;;;;13.25;7.68;;;17.50;99.90;;;;;;5110796;28;20533;-87
2023/06/06 08:14:34;;;;;;;15.00;7.97;;;17.60;99.90;;;;;;5111203;28;20408;-87
2023/06/06 08:17:00;;;;;;;14.13;7.63;;;17.70;99.90;;;;;;5094027;28;20084;-86
2023/06/06 08:19:26;;;;;;;14.40;7.30;;;17.80;99.90;;;;;;5110900;28;20044;-87
2023/06/06 08:21:52;;;;;;;14.13;7.63;;;17.90;99.90;;;;;;5093640;28;20032;-86
2023/06/06 08:24:17;;;;;;;12.43;7.00;;;18.00;99.90;;;;;;5094059;28;20043;-86
2023/06/06 08:26:43;;;;;;;13.98;7.72;;;18.10;99.90;;;;;;5111162;28;20031;-86
2023/06/06 08:29:08;;;;;;;13.50;6.68;;;18.10;99.90;;;;;;5111031;28;20036;-87
2023/06/06 08:31:34;;;;;;;15.48;8.88;;;18.20;99.90;;;;;;5093537;28;20521;-87
2023/06/06 08:34:00;;;;;;;16.38;8.02;;;18.30;99.60;;;;;;5095353;28;20139;-86
2023/06/06 08:36:25;;;;;;;13.32;7.38;;;18.30;99.40;;;;;;5114755;28;20031;-87
2023/06/06 08:38:52;;;;;;;13.35;7.10;;;18.40;98.40;;;;;;5097768;28;20096;-87
2023/06/06 08:41:19;;;;;;;12.43;6.53;;;18.50;98.50;;;;;;5097530;28;20067;-87
2023/06/06 08:43:46;;;;;;;12.13;7.03;;;18.60;98.20;;;;;;5114921;28;20058;-86
2023/06/06 08:46:13;;;;;;;13.75;6.78;;;18.60;96.90;;;;;;5115012;28;20035;-86
2023/06/06 08:48:40;;;;;;;11.35;6.82;;;18.60;96.60;;;;;;5114519;28;20043;-87
2023/06/06 08:51:07;;;;;;;14.30;7.10;;;18.70;96.90;;;;;;5114487;28;20455;-87
2023/06/06 08:53:33;;;;;;;13.32;7.22;;;18.70;97.20;;;;;;5097555;28;20062;-86
2023/06/06 08:56:00;;;;;;;11.95;6.80;;;18.80;97.00;;;;;;5114575;28;20401;-87
2023/06/06 08:58:29;;;;;;;12.07;6.07;;;18.90;95.90;;;;;;5097434;28;20126;-86
2023/06/06 09:00:59;;;;;;;11.50;5.70;;;18.90;96.10;;;;;;5111320;28;20102;-87
2023/06/06 09:03:31;;;;;;;13.93;6.78;;;19.10;96.30;;;;;;5113288;28;20051;-87
2023/06/06 09:05:58;;;;;;;14.70;7.45;;;19.10;96.00;;;;;;5113982;28;20053;-87
2023/06/06 09:08:25;;;;;;;12.00;6.57;;;19.20;95.40;;;;;;5096597;28;20032;-87
2023/06/06 09:10:50;;;;;;;14.20;6.20;;;19.30;94.80;;;;;;5113019;28;20044;-86
2023/06/06 09:13:16;;;;;;;10.90;5.45;;;19.30;94.30;;;;;;5113474;28;20039;-87
2023/06/06 09:15:41;;;;;;;13.35;5.50;;;19.40;93.70;;;;;;5085947;28;20520;-87
2023/06/06 09:18:07;;;;;;;11.73;6.18;;;19.50;93.50;;;;;;5093138;28;20595;-87
2023/06/06 09:20:34;;;;;;;15.25;5.80;;;19.60;93.30;;;;;;5095339;28;20485;-87
2023/06/06 09:23:02;;;;;;;15.20;6.22;;;19.60;93.00;;;;;;5087379;28;20032;-87
2023/06/06 09:25:27;;;;;;;11.25;5.50;;;19.70;92.40;;;;;;5082882;28;20043;-87
2023/06/06 09:28:03;;;;;;;11.20;5.55;;;19.70;92.20;;;;;;5083377;28;20035;-87
2023/06/06 09:30:31;;;;;;;12.55;4.90;;;19.80;92.20;;;;;;5100309;28;20036;-88
2023/06/06 09:33:00;;;;;;;11.05;5.25;;;19.90;92.40;;;;;;5081335;28;20040;-88
2023/06/06 09:35:36;;;;;;;11.10;5.25;;;20.00;91.80;;;;;;5101868;28;20044;-87
2023/06/06 09:38:15;;;;;;;10.63;5.22;;;20.00;91.90;;;;;;5084589;28;20034;-87
2023/06/06 09:40:46;;;;;;;12.27;5.63;;;20.10;91.40;;;;;;5086745;28;20039;-87
2023/06/06 09:43:12;;;;;;;12.25;5.75;;;20.20;91.30;;;;;;5103874;28;20039;-87
2023/06/06 09:45:52;;;;;;;12.52;5.97;;;20.30;90.80;;;;;;5085548;28;20050;-87
2023/06/06 09:48:27;;;;;;;13.40;7.10;;;20.40;90.80;;;;;;5111124;28;20043;-87
2023/06/06 09:50:53;;;;;;;12.20;5.60;;;20.50;90.30;;;;;;5112117;28;20039;-88
2023/06/06 09:53:23;;;;;;;11.68;5.55;;;20.60;90.20;;;;;;5112710;28;20063;-87
2023/06/06 09:55:50;;;;;;;11.40;5.47;;;20.60;89.40;;;;;;5096146;28;20031;-88
2023/06/06 09:58:16;;;;;;;12.48;5.95;;;20.70;88.20;;;;;;5112743;28;20047;-87
2023/06/06 10:00:46;;;;;;;12.18;5.65;;;20.80;87.60;;;;;;5112595;28;20035;-87
2023/06/06 10:03:18;;;;;;;10.20;4.95;;;20.90;86.80;;;;;;5112794;28;20082;-88
2023/06/06 10:05:45;;;;;;;;;;;20.90;86.60;;;;;;5113303;28;20082;-88
2023/06/06 10:08:12;;;;;;;11.85;4.78;;;20.90;87.20;;;;;;5112234;28;20028;-88
2023/06/06 10:10:41;;;;;;;10.95;5.47;;;21.00;86.40;;;;;;5094859;28;20039;-87
2023/06/06 10:13:07;;;;;;;13.32;5.60;;;21.10;85.80;;;;;;5109804;28;20123;-88
2023/06/06 10:15:33;;;;;;;10.70;5.43;;;21.20;85.60;;;;;;5102377;28;20114;-87
2023/06/06 10:17:59;;;;;;;11.80;5.60;;;21.30;84.00;;;;;;5080701;28;20036;-87
2023/06/06 10:20:26;;;;;;;11.00;5.20;;;21.40;84.00;;;;;;5091613;28;20039;-87
2023/06/06 10:22:52;;;;;;;10.10;5.47;;;21.50;83.50;;;;;;5091721;28;20040;-87
2023/06/06 10:25:18;;;;;;;10.80;5.22;;;21.60;83.10;;;;;;5092191;28;20043;-88
2023/06/06 10:27:46;;;;;;;10.90;5.13;;;21.70;82.60;;;;;;5091587;28;20094;-87
2023/06/06 10:30:25;;;;;;;11.18;5.32;;;21.80;81.90;;;;;;5074155;28;20040;-88
2023/06/06 10:33:14;;;;;;;10.32;4.85;;;21.90;80.90;;;;;;5082753;28;20039;-88
2023/06/06 10:35:42;;;;;;;11.55;5.13;;;22.00;80.40;;;;;;5102684;28;20136;-87
2023/06/06 10:38:09;;;;;;;11.02;4.93;;;22.10;80.80;;;;;;5106211;28;20043;-88
2023/06/06 10:40:51;;;;;;;10.70;5.03;;;22.20;80.60;;;;;;5113119;28;20114;-88
2023/06/06 10:43:46;;;;;;;10.25;5.32;;;22.40;80.30;;;;;;5112230;28;20118;-88
2023/06/06 10:46:12;;;;;;;9.82;5.50;;;22.40;78.00;;;;;;5094715;28;20056;-87
2023/06/06 10:48:45;;;;;;;12.65;4.95;;;22.40;78.10;;;;;;5111270;28;20080;-88
2023/06/06 10:51:23;;;;;;;9.50;4.82;;;22.50;77.60;;;;;;5106209;28;20112;-88
2023/06/06 10:54:17;;;;;;;11.73;5.28;;;22.50;76.90;;;;;;5074319;28;20497;-88
2023/06/06 10:56:50;;;;;;;11.32;4.50;;;22.60;77.50;;;;;;5100241;28;20051;-87
2023/06/06 10:59:16;;;;;;;10.55;4.88;;;22.70;77.80;;;;;;5100590;28;20349;-88
2023/06/06 11:01:44;;;;;;;11.13;5.00;;;22.90;76.80;;;;;;5083586;28;20485;-88
2023/06/06 11:04:23;;;;;;;10.32;4.65;;;23.00;76.70;;;;;;5084963;28;20028;-88
2023/06/06 11:06:51;;;;;;;11.00;4.78;;;23.10;75.80;;;;;;5085012;28;20027;-87
2023/06/06 11:09:21;;;;;;;11.43;5.00;;;23.20;74.60;;;;;;5099690;28;20032;-87
2023/06/06 11:11:47;;;;;;;11.63;5.10;;;23.20;74.20;;;;;;5082670;28;20123;-87
2023/06/06 11:14:13;;;;;;;11.93;5.32;;;23.30;73.70;;;;;;5083905;28;20118;-88
2023/06/06 11:16:39;;;;;;;11.40;4.70;;;23.30;73.60;;;;;;5099800;28;20090;-87
2023/06/06 11:19:15;;;;;;;12.43;5.25;;;23.40;74.20;;;;;;5087980;28;20036;-88
2023/06/06 11:21:46;;;;;;;10.43;5.40;;;23.50;74.80;;;;;;5111505;28;20036;-87
2023/06/06 11:24:12;;;;;;;10.90;5.20;;;23.60;73.10;;;;;;5111515;28;20062;-87
2023/06/06 11:26:39;;;;;;;12.18;5.28;;;23.70;73.10;;;;;;5111632;28;20079;-87
2023/06/06 11:29:09;;;;;;;13.13;5.05;;;23.80;72.80;;;;;;5094618;28;20040;-87
2023/06/06 11:31:35;;;;;;;11.50;5.07;;;23.90;73.30;;;;;;5111116;28;20032;-87
2023/06/06 11:34:14;;;;;;;11.05;5.20;;;24.00;72.90;;;;;;5111229;28;20044;-87
2023/06/06 11:36:44;;;;;;;9.23;5.03;;;24.10;72.20;;;;;;5111507;28;20493;-87
2023/06/06 11:39:12;;;;;;;11.82;4.85;;;24.20;71.60;;;;;;5111353;28;20069;-87
2023/06/06 11:41:49;;;;;;;10.85;5.22;;;24.30;71.30;;;;;;5111387;28;20050;-87
2023/06/06 11:44:16;;;;;;;11.75;4.70;;;24.40;71.00;;;;;;5094331;28;20634;-87
2023/06/06 11:46:52;;;;;;;10.90;5.22;;;24.40;71.40;;;;;;5094478;28;20043;-87
2023/06/06 11:49:19;;;;;;;11.45;5.18;;;24.50;70.60;;;;;;5111310;28;20122;-87
2023/06/06 11:51:57;;;;;;;10.32;4.72;;;24.50;70.10;;;;;;5111109;28;20096;-87
2023/06/06 11:54:23;;;;;;;11.82;5.00;;;24.70;70.10;;;;;;5111154;28;20079;-87
2023/06/06 11:56:53;;;;;;;10.18;4.47;;;24.70;69.00;;;;;;5111170;28;20118;-87
2023/06/06 11:59:20;;;;;;;11.00;5.35;;;24.70;68.90;;;;;;5111275;28;20035;-88
2023/06/06 12:01:50;;;;;;;8.88;4.10;;;24.80;69.40;;;;;;5111105;28;20046;-87
2023/06/06 12:04:22;;;;;;;9.30;4.43;;;24.90;68.90;;;;;;5093991;28;20161;-87
2023/06/06 12:06:53;;;;;;;13.10;5.18;;;25.00;69.20;;;;;;5111377;28;20047;-87
2023/06/06 12:09:19;;;;;;;10.75;4.60;;;25.20;68.70;;;;;;5106537;28;20044;-87
2023/06/06 12:11:59;;;;;;;10.25;4.53;;;25.30;67.90;;;;;;5109567;28;20508;-87
2023/06/06 12:14:27;;;;;;;11.82;5.15;;;25.40;68.20;;;;;;5093114;28;20043;-87
2023/06/06 12:17:05;;;;;;;10.10;5.10;;;25.50;68.10;;;;;;5093943;28;20074;-87
2023/06/06 12:19:31;;;;;;;10.63;4.70;;;25.50;66.80;;;;;;5110118;28;20097;-87
2023/06/06 12:21:56;;;;;;;11.02;4.93;;;25.60;67.30;;;;;;5093888;28;20083;-87
2023/06/06 12:24:24;;;;;;;12.35;4.80;;;25.60;66.70;;;;;;5093265;28;20481;-87
2023/06/06 12:26:53;;;;;;;12.57;5.63;;;25.70;66.60;;;;;;5093502;28;20035;-87
2023/06/06 12:29:20;;;;;;;11.02;4.60;;;25.80;66.60;;;;;;5093278;28;20135;-87
2023/06/06 12:31:49;;;;;;;10.32;4.70;;;25.80;66.00;;;;;;5092611;28;20039;-88
2023/06/06 12:34:14;;;;;;;9.65;4.78;;;25.90;65.80;;;;;;5092888;28;20031;-87
2023/06/06 12:36:41;;;;;;;11.60;4.53;;;26.00;65.70;;;;;;5111641;28;20046;-87
2023/06/06 12:39:11;;;;;;;11.52;5.40;;;26.10;66.10;;;;;;5110222;28;20039;-87
2023/06/06 12:41:41;;;;;;;11.43;5.38;;;26.20;65.70;;;;;;5110234;28;20431;-87